Time;durP1;ratioP1;P1;durP2;ratioP2;P2;SDS_P1;SDS_P2;PMS_P1;PMS_P2;Temp;Humidity;BMP_temperature;BMP_pressure;BME280_temperature;BME280_humidity;BME280_pressure;Samples;Min_cycle;Max_cycle;Signal;HPM_P1;HPM_P2
2022/04/25 00:07:05;;;;;;;11.97;8.43;;;;;;;;;;774489;76;26210;-75
2022/04/25 00:08:08;;;;;;;12.33;8.93;;;;;;;;;;777313;76;26234;-77
2022/04/25 00:11:15;;;;;;;12.00;8.30;;;;;;;;;;717258;81;26317;-77
2022/04/25 00:12:18;;;;;;;11.18;8.75;;;;;;;;;;729006;81;26470;-76
2022/04/25 00:13:20;;;;;;;10.40;9.30;;;;;;;;;;729106;81;26297;-77
2022/04/25 00:14:23;;;;;;;10.65;9.28;;;;;;;;;;743667;79;26280;-78
2022/04/25 00:15:27;;;;;;;11.25;8.60;;;;;;;;;;758515;78;26236;-76
2022/04/25 00:21:55;;;;;;;14.47;8.90;;;;;;;;;;776103;75;26172;-75
2022/04/25 00:23:04;;;;;;;11.55;8.28;;;;;;;;;;776402;76;26737;-77
2022/04/25 00:24:03;;;;;;;12.13;8.23;;;;;;;;;;776247;76;26245;-77
2022/04/25 00:25:06;;;;;;;15.50;9.40;;;;;;;;;;776757;76;26283;-76
2022/04/25 00:26:09;;;;;;;11.08;8.48;;;;;;;;;;777515;76;26222;-78
2022/04/25 00:27:12;;;;;;;13.22;8.83;;;;;;;;;;778141;76;26204;-77
2022/04/25 00:28:15;;;;;;;14.63;9.08;;;;;;;;;;776609;76;26237;-75
2022/04/25 00:31:10;;;;;;;11.43;8.13;;;;;;;;;;782824;74;26264;-77
2022/04/25 00:32:14;;;;;;;11.68;8.18;;;;;;;;;;781354;75;26303;-76
2022/04/25 00:33:16;;;;;;;15.00;8.78;;;;;;;;;;781669;76;26241;-77
2022/04/25 00:34:19;;;;;;;17.55;8.88;;;;;;;;;;781875;76;26294;-77
2022/04/25 00:35:23;;;;;;;10.65;8.75;;;;;;;;;;781391;76;26236;-77
2022/04/25 00:36:26;;;;;;;11.25;8.20;;;;;;;;;;787905;75;26238;-77
2022/04/25 00:37:28;;;;;;;13.13;7.87;;;;;;;;;;787752;75;26239;-78
2022/04/25 00:42:12;;;;;;;19.52;8.73;;;;;;;;;;783567;74;26328;-76
2022/04/25 00:43:15;;;;;;;13.88;8.10;;;;;;;;;;795554;74;26230;-75
2022/04/25 00:44:18;;;;;;;10.98;8.38;;;;;;;;;;795776;74;26668;-78
2022/04/25 00:45:21;;;;;;;13.75;8.38;;;;;;;;;;795860;74;26287;-76
2022/04/25 00:46:25;;;;;;;15.05;8.85;;;;;;;;;;795861;74;26238;-77
2022/04/25 00:47:31;;;;;;;14.53;8.48;;;;;;;;;;795730;74;26229;-75
2022/04/25 00:52:14;;;;;;;16.05;7.75;;;;;;;;;;813612;72;26265;-76
2022/04/25 00:53:17;;;;;;;13.20;8.08;;;;;;;;;;813554;73;26660;-75
2022/04/25 00:54:20;;;;;;;17.42;8.30;;;;;;;;;;813810;73;26728;-77
2022/04/25 00:55:23;;;;;;;15.00;8.63;;;;;;;;;;813795;73;26214;-76
2022/04/25 00:56:26;;;;;;;11.45;8.23;;;;;;;;;;813736;73;26218;-76
2022/04/25 00:57:30;;;;;;;14.33;8.10;;;;;;;;;;813816;73;26222;-77
2022/04/25 01:02:14;;;;;;;11.57;7.83;;;;;;;;;;814062;72;26239;-77
2022/04/25 01:03:18;;;;;;;18.30;8.58;;;;;;;;;;813591;73;26214;-75
2022/04/25 01:10:49;;;;;;;12.35;8.50;;;;;;;;;;787097;75;26313;-76
2022/04/25 01:11:52;;;;;;;12.25;8.25;;;;;;;;;;789043;75;26231;-76
2022/04/25 01:12:55;;;;;;;13.43;7.83;;;;;;;;;;789069;75;26243;-76
2022/04/25 01:13:58;;;;;;;13.40;7.92;;;;;;;;;;789108;75;26703;-76
2022/04/25 01:15:02;;;;;;;13.88;7.75;;;;;;;;;;789128;75;26232;-77
2022/04/25 01:16:05;;;;;;;12.70;8.10;;;;;;;;;;787512;75;26704;-78
2022/04/25 01:17:09;;;;;;;15.15;8.23;;;;;;;;;;788913;75;26310;-75
2022/04/25 01:27:16;;;;;;;12.90;8.60;;;;;;;;;;799153;74;26225;-77
2022/04/25 01:31:48;;;;;;;12.03;7.70;;;;;;;;;;760519;76;26299;-76
2022/04/25 01:32:52;;;;;;;11.43;7.97;;;;;;;;;;761043;78;26299;-76
2022/04/25 01:33:58;;;;;;;13.85;8.10;;;;;;;;;;761833;78;26241;-77
2022/04/25 01:35:01;;;;;;;16.48;8.38;;;;;;;;;;761906;78;26252;-77
2022/04/25 01:36:04;;;;;;;14.30;8.13;;;;;;;;;;761781;78;26236;-77
2022/04/25 01:37:11;;;;;;;11.00;7.70;;;;;;;;;;761847;78;26253;-75
2022/04/25 01:41:55;;;;;;;16.48;8.10;;;;;;;;;;771132;76;26276;-77
2022/04/25 01:42:58;;;;;;;13.83;8.40;;;;;;;;;;758339;78;26260;-77
2022/04/25 01:44:01;;;;;;;13.58;8.80;;;;;;;;;;758407;78;26248;-78
2022/04/25 01:50:19;;;;;;;12.55;8.20;;;;;;;;;;811673;71;26634;-79
2022/04/25 01:56:13;;;;;;;13.78;7.67;;;;;;;;;;799760;73;26185;-78
2022/04/25 01:59:06;;;;;;;14.95;8.85;;;;;;;;;;766041;75;26277;-77
2022/04/25 02:00:10;;;;;;;15.13;7.85;;;;;;;;;;778524;74;26242;-77
2022/04/25 02:01:13;;;;;;;11.83;7.70;;;;;;;;;;776660;76;26238;-77
2022/04/25 02:02:16;;;;;;;10.93;7.87;;;;;;;;;;790447;75;26272;-77
2022/04/25 02:03:19;;;;;;;14.47;7.70;;;;;;;;;;791024;75;26193;-77
2022/04/25 02:04:22;;;;;;;13.40;8.10;;;;;;;;;;791075;75;26197;-77
2022/04/25 02:05:25;;;;;;;15.35;8.43;;;;;;;;;;791100;75;26650;-76
2022/04/25 02:06:29;;;;;;;14.60;8.48;;;;;;;;;;791140;75;26194;-78
2022/04/25 02:07:31;;;;;;;14.75;7.40;;;;;;;;;;791098;75;26193;-78
2022/04/25 02:10:31;;;;;;;16.57;7.45;;;;;;;;;;775881;76;26369;-77
2022/04/25 02:11:35;;;;;;;11.93;7.97;;;;;;;;;;775754;76;26303;-77
2022/04/25 02:12:37;;;;;;;12.88;7.55;;;;;;;;;;775718;76;26299;-76
2022/04/25 02:13:40;;;;;;;22.55;8.15;;;;;;;;;;775729;76;26257;-76
2022/04/25 02:14:44;;;;;;;10.93;7.80;;;;;;;;;;775692;76;26397;-77
2022/04/25 02:15:47;;;;;;;15.88;7.65;;;;;;;;;;775772;76;26256;-77
2022/04/25 02:16:50;;;;;;;16.27;7.62;;;;;;;;;;775706;76;26260;-76
2022/04/25 02:17:53;;;;;;;9.78;7.95;;;;;;;;;;775723;76;26715;-77
2022/04/25 02:22:13;;;;;;;11.90;7.00;;;;;;;;;;771504;76;26221;-78
2022/04/25 02:23:16;;;;;;;16.40;8.13;;;;;;;;;;777189;76;26254;-78
2022/04/25 02:24:19;;;;;;;15.98;7.83;;;;;;;;;;775504;76;26245;-77
2022/04/25 02:25:22;;;;;;;11.43;7.53;;;;;;;;;;777856;76;26741;-76
2022/04/25 02:26:25;;;;;;;12.70;8.50;;;;;;;;;;777649;76;26291;-78
2022/04/25 02:27:28;;;;;;;10.82;7.78;;;;;;;;;;796500;74;26320;-78
2022/04/25 02:31:29;;;;;;;12.43;7.10;;;;;;;;;;781023;74;26298;-76
2022/04/25 02:32:32;;;;;;;12.70;7.75;;;;;;;;;;781194;75;26307;-77
2022/04/25 02:33:36;;;;;;;13.13;8.28;;;;;;;;;;780809;76;26694;-75
2022/04/25 02:34:40;;;;;;;13.08;7.92;;;;;;;;;;780553;76;26323;-77
2022/04/25 02:35:42;;;;;;;14.38;7.58;;;;;;;;;;780879;76;26261;-76
2022/04/25 02:36:45;;;;;;;13.45;8.70;;;;;;;;;;780510;76;26241;-76
2022/04/25 02:37:48;;;;;;;14.18;7.80;;;;;;;;;;780552;76;26340;-76
2022/04/25 02:41:12;;;;;;;15.80;8.13;;;;;;;;;;780689;76;26263;-76
2022/04/25 02:42:12;;;;;;;11.03;7.75;;;;;;;;;;753294;77;26264;-78
2022/04/25 02:43:15;;;;;;;15.28;7.72;;;;;;;;;;746901;79;26355;-75
2022/04/25 02:44:20;;;;;;;12.63;7.60;;;;;;;;;;746909;79;26733;-77
2022/04/25 02:45:22;;;;;;;13.93;7.70;;;;;;;;;;746847;79;26261;-76
2022/04/25 02:46:25;;;;;;;14.03;8.00;;;;;;;;;;746923;79;26253;-77
2022/04/25 02:47:28;;;;;;;11.85;7.90;;;;;;;;;;746900;79;26314;-77
2022/04/25 02:52:04;;;;;;;14.03;7.25;;;;;;;;;;793510;73;26216;-76
2022/04/25 02:53:07;;;;;;;10.63;6.97;;;;;;;;;;786717;75;26224;-76
2022/04/25 02:54:10;;;;;;;13.00;7.15;;;;;;;;;;786636;75;26275;-77
2022/04/25 02:55:13;;;;;;;18.50;8.15;;;;;;;;;;786693;75;26678;-76
2022/04/25 02:56:15;;;;;;;12.88;7.42;;;;;;;;;;786651;75;26236;-77
2022/04/25 03:01:00;;;;;;;13.45;7.65;;;;;;;;;;787747;74;26678;-77
2022/04/25 03:02:03;;;;;;;12.60;7.65;;;;;;;;;;770536;76;26254;-77
2022/04/25 03:03:06;;;;;;;14.05;8.10;;;;;;;;;;752014;79;26312;-77
2022/04/25 03:04:11;;;;;;;15.48;7.37;;;;;;;;;;749370;79;26256;-78
2022/04/25 03:05:13;;;;;;;12.47;7.25;;;;;;;;;;761938;78;26329;-77
2022/04/25 03:06:16;;;;;;;14.85;7.70;;;;;;;;;;761921;78;26758;-75
2022/04/25 03:07:19;;;;;;;14.38;7.50;;;;;;;;;;761921;78;26772;-76
2022/04/25 03:10:28;;;;;;;15.10;8.23;;;;;;;;;;751875;78;26402;-77
2022/04/25 03:11:31;;;;;;;10.65;7.72;;;;;;;;;;750656;79;26277;-76
2022/04/25 03:12:38;;;;;;;11.78;8.05;;;;;;;;;;750625;79;26289;-77
2022/04/25 03:13:41;;;;;;;15.70;7.55;;;;;;;;;;763567;77;26341;-77
2022/04/25 03:14:44;;;;;;;15.35;7.92;;;;;;;;;;763600;77;26721;-77
2022/04/25 03:15:47;;;;;;;12.53;8.03;;;;;;;;;;763605;77;26324;-77
2022/04/25 03:16:50;;;;;;;11.95;7.58;;;;;;;;;;763553;77;26390;-77
2022/04/25 03:21:23;;;;;;;11.63;7.95;;;;;;;;;;766180;76;26239;-76
2022/04/25 03:22:26;;;;;;;17.70;8.10;;;;;;;;;;762418;78;26752;-77
2022/04/25 03:23:29;;;;;;;13.13;8.40;;;;;;;;;;762433;78;26718;-75
2022/04/25 03:24:32;;;;;;;9.60;7.33;;;;;;;;;;762364;78;26246;-75
2022/04/25 03:25:37;;;;;;;13.08;8.23;;;;;;;;;;762393;78;26373;-78
2022/04/25 03:30:27;;;;;;;12.20;7.50;;;;;;;;;;762973;78;26210;-76
2022/04/25 03:31:30;;;;;;;18.10;12.13;;;;;;;;;;790362;75;26224;-78
2022/04/25 03:32:34;;;;;;;19.90;14.07;;;;;;;;;;791475;75;26246;-79
2022/04/25 03:33:37;;;;;;;20.15;13.35;;;;;;;;;;790385;74;26227;-77
2022/04/25 03:36:31;;;;;;;17.85;8.58;;;;;;;;;;804357;72;26769;-76
2022/04/25 03:42:08;;;;;;;11.28;8.00;;;;;;;;;;775862;76;26692;-78
2022/04/25 03:43:12;;;;;;;14.80;8.38;;;;;;;;;;775749;76;26345;-77
2022/04/25 03:44:15;;;;;;;15.18;7.83;;;;;;;;;;775769;76;26709;-77
2022/04/25 03:45:18;;;;;;;17.70;8.50;;;;;;;;;;775825;76;26755;-77
2022/04/25 03:46:21;;;;;;;15.43;8.70;;;;;;;;;;775914;76;26314;-78
2022/04/25 03:50:53;;;;;;;15.03;7.55;;;;;;;;;;793239;74;26258;-76
2022/04/25 03:51:56;;;;;;;15.58;8.20;;;;;;;;;;786014;75;26227;-76
2022/04/25 03:53:01;;;;;;;14.18;8.03;;;;;;;;;;786050;75;26698;-76
2022/04/25 03:54:03;;;;;;;18.42;8.28;;;;;;;;;;785498;75;26230;-77
2022/04/25 04:01:17;;;;;;;13.35;7.65;;;;;;;;;;785811;74;26219;-78
2022/04/25 04:02:20;;;;;;;12.37;7.80;;;;;;;;;;786887;75;26227;-75
2022/04/25 04:03:23;;;;;;;14.43;7.97;;;;;;;;;;786780;75;26231;-76
2022/04/25 04:04:26;;;;;;;14.00;7.45;;;;;;;;;;786745;75;26668;-77
2022/04/25 04:05:30;;;;;;;14.47;8.05;;;;;;;;;;786743;75;26274;-76
2022/04/25 04:06:33;;;;;;;14.05;8.08;;;;;;;;;;786737;75;26323;-78
2022/04/25 04:09:49;;;;;;;16.73;8.00;;;;;;;;;;786968;75;26269;-77
2022/04/25 04:10:52;;;;;;;16.62;7.97;;;;;;;;;;776552;76;26678;-77
2022/04/25 04:11:55;;;;;;;15.43;8.68;;;;;;;;;;776173;76;26256;-76
2022/04/25 04:12:59;;;;;;;10.20;8.03;;;;;;;;;;776176;76;26245;-76
2022/04/25 04:14:04;;;;;;;16.48;8.65;;;;;;;;;;776201;76;26671;-75
2022/04/25 04:17:00;;;;;;;17.70;7.95;;;;;;;;;;778654;74;26234;-75
2022/04/25 04:21:21;;;;;;;12.03;7.87;;;;;;;;;;761734;77;26273;-78
2022/04/25 04:22:29;;;;;;;15.83;8.83;;;;;;;;;;763404;77;26329;-78
2022/04/25 04:23:28;;;;;;;13.75;9.28;;;;;;;;;;762365;77;26745;-78
2022/04/25 04:24:31;;;;;;;10.20;8.50;;;;;;;;;;767522;77;26788;-77
2022/04/25 04:25:35;;;;;;;15.05;8.90;;;;;;;;;;768884;77;26776;-77
2022/04/25 04:31:48;;;;;;;14.00;8.60;;;;;;;;;;781539;75;26696;-78
2022/04/25 04:32:52;;;;;;;13.25;8.20;;;;;;;;;;776093;76;26244;-75
2022/04/25 04:33:55;;;;;;;11.90;7.47;;;;;;;;;;775986;76;26243;-75
2022/04/25 04:34:58;;;;;;;19.75;8.35;;;;;;;;;;776047;76;26239;-76
2022/04/25 04:36:18;;;;;;;21.30;8.73;;;;;;;;;;775994;76;26300;-78
2022/04/25 04:40:52;;;;;;;19.35;8.25;;;;;;;;;;783831;74;26172;-75
2022/04/25 04:41:55;;;;;;;16.00;8.35;;;;;;;;;;783973;75;26292;-77
2022/04/25 04:42:58;;;;;;;15.35;8.00;;;;;;;;;;785727;75;26247;-75
2022/04/25 04:44:02;;;;;;;12.88;8.60;;;;;;;;;;786114;75;26204;-75
2022/04/25 04:45:05;;;;;;;15.25;9.15;;;;;;;;;;784899;75;26219;-77
2022/04/25 04:46:08;;;;;;;18.85;9.53;;;;;;;;;;785010;75;26231;-77
2022/04/25 04:50:41;;;;;;;15.40;8.25;;;;;;;;;;778615;75;26287;-76
2022/04/25 04:51:44;;;;;;;16.20;8.90;;;;;;;;;;776656;74;26710;-76
2022/04/25 04:52:48;;;;;;;14.90;8.50;;;;;;;;;;776609;76;26302;-77
2022/04/25 04:53:50;;;;;;;12.50;7.80;;;;;;;;;;776622;76;26323;-78
2022/04/25 04:56:56;;;;;;;19.15;8.65;;;;;;;;;;777402;76;26232;-79
2022/04/25 04:59:52;;;;;;;11.53;7.22;;;;;;;;;;725313;79;26259;-77
2022/04/25 05:00:54;;;;;;;20.37;8.08;;;;;;;;;;751333;77;26787;-76
2022/04/25 05:03:58;;;;;;;13.70;7.80;;;;;;;;;;822148;72;26192;-78
2022/04/25 05:05:00;;;;;;;20.72;9.15;;;;;;;;;;823331;72;26242;-77
2022/04/25 05:06:03;;;;;;;18.60;10.72;;;;;;;;;;823463;72;26204;-76
2022/04/25 05:07:06;;;;;;;16.02;10.00;;;;;;;;;;823571;72;26196;-77
2022/04/25 05:10:07;;;;;;;16.20;9.20;;;;;;;;;;776688;74;26208;-77
2022/04/25 05:11:11;;;;;;;25.80;10.58;;;;;;;;;;776675;75;26697;-76
2022/04/25 05:12:14;;;;;;;17.60;10.82;;;;;;;;;;776295;76;26290;-78
2022/04/25 05:13:17;;;;;;;19.37;11.33;;;;;;;;;;776231;76;26302;-77
2022/04/25 05:14:19;;;;;;;14.40;9.98;;;;;;;;;;776286;76;26235;-76
2022/04/25 05:15:23;;;;;;;16.10;9.30;;;;;;;;;;776248;76;26289;-76
2022/04/25 05:16:27;;;;;;;16.65;8.83;;;;;;;;;;776286;76;26232;-77
2022/04/25 05:23:44;;;;;;;12.95;8.08;;;;;;;;;;775617;76;26331;-75
2022/04/25 05:24:48;;;;;;;18.32;9.00;;;;;;;;;;775692;76;26721;-77
2022/04/25 05:25:51;;;;;;;14.58;8.90;;;;;;;;;;776136;76;26254;-77
2022/04/25 05:29:07;;;;;;;14.20;7.60;;;;;;;;;;776982;76;26248;-76
2022/04/25 05:30:10;;;;;;;16.30;8.18;;;;;;;;;;762576;78;26736;-75
2022/04/25 05:31:13;;;;;;;13.07;8.20;;;;;;;;;;763080;78;26299;-76
2022/04/25 05:32:17;;;;;;;15.27;7.37;;;;;;;;;;763485;78;26501;-76
2022/04/25 05:33:20;;;;;;;15.17;8.00;;;;;;;;;;763010;78;26498;-76
2022/04/25 05:34:23;;;;;;;15.87;7.30;;;;;;;;;;763157;78;26457;-76
2022/04/25 05:35:26;;;;;;;12.10;7.53;;;;;;;;;;763548;78;26800;-76
2022/04/25 05:36:29;;;;;;;19.80;9.10;;;;;;;;;;761980;78;26436;-76
2022/04/25 05:39:47;;;;;;;13.93;7.70;;;;;;;;;;762765;78;26892;-74
2022/04/25 05:40:50;;;;;;;15.90;7.40;;;;;;;;;;778108;74;26447;-76
2022/04/25 05:41:53;;;;;;;12.10;6.57;;;;;;;;;;776855;76;26893;-78
2022/04/25 05:42:56;;;;;;;14.80;7.87;;;;;;;;;;776887;76;26386;-77
2022/04/25 05:44:00;;;;;;;13.70;7.90;;;;;;;;;;776865;76;26565;-76
2022/04/25 05:45:04;;;;;;;12.73;7.97;;;;;;;;;;776862;76;26963;-75
2022/04/25 05:46:07;;;;;;;14.97;7.80;;;;;;;;;;776828;76;26456;-77
2022/04/25 06:00:03;;;;;;;19.53;8.20;;;;;;;;;;774272;74;26424;-76
2022/04/25 06:01:06;;;;;;;17.93;8.20;;;;;;;;;;779332;76;26317;-76
2022/04/25 06:02:09;;;;;;;15.40;7.90;;;;;;;;;;778199;76;26452;-76
2022/04/25 06:03:12;;;;;;;19.63;8.03;;;;;;;;;;776256;76;26490;-76
2022/04/25 06:04:15;;;;;;;16.43;7.97;;;;;;;;;;776263;76;26826;-75
2022/04/25 06:05:18;;;;;;;13.27;8.20;;;;;;;;;;776197;76;26931;-78
2022/04/25 06:06:23;;;;;;;15.17;7.80;;;;;;;;;;776219;76;26859;-77
2022/04/25 06:09:40;;;;;;;9.53;7.30;;;;;;;;;;776979;76;26389;-77
2022/04/25 06:10:43;;;;;;;14.87;7.47;;;;;;;;;;777994;76;26521;-76
2022/04/25 06:15:24;;;;;;;10.70;7.27;;;;;;;;;;800637;72;26510;-77
2022/04/25 06:16:28;;;;;;;14.97;7.50;;;;;;;;;;800556;74;26587;-76
2022/04/25 06:20:37;;;;;;;13.97;7.90;;;;;;;;;;761955;77;26470;-77
2022/04/25 06:21:40;;;;;;;12.10;7.50;;;;;;;;;;724852;82;26649;-76
2022/04/25 06:22:44;;;;;;;13.30;7.77;;;;;;;;;;748850;79;26619;-74
2022/04/25 06:23:47;;;;;;;21.73;13.73;;;;;;;;;;755427;78;26774;-75
2022/04/25 06:24:50;;;;;;;23.20;14.93;;;;;;;;;;756824;78;26728;-77
2022/04/25 06:25:53;;;;;;;18.23;10.50;;;;;;;;;;756878;78;26687;-76
2022/04/25 06:29:11;;;;;;;21.23;8.03;;;;;;;;;;756066;78;26627;-76
2022/04/25 06:30:14;;;;;;;13.63;7.90;;;;;;;;;;771678;76;26558;-76
2022/04/25 06:31:17;;;;;;;16.03;7.67;;;;;;;;;;773351;76;26554;-75
2022/04/25 06:32:20;;;;;;;12.43;7.67;;;;;;;;;;773337;76;26631;-78
2022/04/25 06:33:23;;;;;;;13.47;6.97;;;;;;;;;;773279;76;27097;-76
2022/04/25 06:34:25;;;;;;;15.20;8.20;;;;;;;;;;773292;76;26550;-76
2022/04/25 06:35:28;;;;;;;11.77;7.00;;;;;;;;;;773436;76;26652;-76
2022/04/25 06:40:00;;;;;;;15.53;6.77;;;;;;;;;;776181;74;26709;-77
2022/04/25 06:41:21;;;;;;;10.90;6.47;;;;;;;;;;775936;76;26640;-76
2022/04/25 06:42:14;;;;;;;13.70;7.07;;;;;;;;;;759890;77;27202;-76
2022/04/25 06:43:14;;;;;;;18.13;8.03;;;;;;;;;;764075;76;26679;-76
2022/04/25 06:44:17;;;;;;;10.97;7.17;;;;;;;;;;776000;76;27462;-75
2022/04/25 06:45:20;;;;;;;12.53;8.67;;;;;;;;;;776057;76;26749;-75
2022/04/25 06:48:38;;;;;;;15.73;8.70;;;;;;;;;;776335;76;26769;-76
2022/04/25 06:49:40;;;;;;;16.97;9.70;;;;;;;;;;776780;76;27177;-76
2022/04/25 06:50:43;;;;;;;20.47;8.50;;;;;;;;;;776757;76;27401;-76
2022/04/25 06:51:47;;;;;;;14.13;8.40;;;;;;;;;;776756;76;27394;-76
2022/04/25 06:55:07;;;;;;;13.93;7.30;;;;;;;;;;777226;76;26959;-77
2022/04/25 06:56:10;;;;;;;13.43;7.20;;;;;;;;;;738153;80;26988;-77
2022/04/25 07:00:43;;;;;;;18.07;6.67;;;;;;;;;;777471;73;26986;-75
2022/04/25 07:01:46;;;;;;;12.73;6.97;;;;;;;;;;776559;76;27370;-76
2022/04/25 07:02:51;;;;;;;12.90;7.17;;;;;;;;;;776571;76;27385;-75
2022/04/25 07:03:54;;;;;;;14.50;7.30;;;;;;;;;;776554;76;26927;-77
2022/04/25 07:08:08;;;;;;;16.30;7.83;;;;;;;;;;787429;75;26894;-77
2022/04/25 07:09:14;;;;;;;13.37;6.40;;;;;;;;;;801747;74;26998;-78
2022/04/25 07:10:19;;;;;;;15.03;7.47;;;;;;;;;;800714;74;26979;-78
2022/04/25 07:11:22;;;;;;;15.93;8.10;;;;;;;;;;787064;75;26907;-77
2022/04/25 07:12:27;;;;;;;20.03;7.97;;;;;;;;;;787456;75;26983;-77
2022/04/25 07:13:31;;;;;;;15.70;7.40;;;;;;;;;;787403;75;27000;-77
2022/04/25 07:14:35;;;;;;;21.30;13.20;;;;;;;;;;802570;73;26907;-77
2022/04/25 07:15:38;;;;;;;15.00;9.90;;;;;;;;;;802045;74;26914;-80
2022/04/25 07:20:10;;;;;;;13.00;7.70;;;;;;;;;;785814;75;26925;-78
2022/04/25 07:30:48;;;;;;;16.77;7.13;;;;;;;;;;802248;72;26968;-78
2022/04/25 07:31:51;;;;;;;12.57;6.60;;;;;;;;;;799451;73;26924;-75
2022/04/25 07:32:55;;;;;;;15.43;6.37;;;;;;;;;;795196;74;26899;-77
2022/04/25 07:33:59;;;;;;;14.10;6.03;;;;;;;;;;795027;74;26985;-76
2022/04/25 07:35:04;;;;;;;10.83;6.30;;;;;;;;;;795053;74;27380;-77
2022/04/25 07:36:06;;;;;;;16.20;7.07;;;;;;;;;;795180;74;26915;-76
2022/04/25 07:40:25;;;;;;;11.30;6.53;;;;;;;;;;794475;74;26856;-76
2022/04/25 07:41:28;;;;;;;12.87;6.70;;;;;;;;;;793992;74;26924;-77
2022/04/25 07:42:33;;;;;;;14.10;6.27;;;;;;;;;;793961;74;27368;-77
2022/04/25 07:43:36;;;;;;;13.40;6.67;;;;;;;;;;794034;74;26968;-77
2022/04/25 07:44:39;;;;;;;17.53;6.60;;;;;;;;;;793930;74;26919;-76
2022/04/25 07:45:42;;;;;;;14.30;5.43;;;;;;;;;;803278;73;26905;-77
2022/04/25 07:49:22;;;;;;;13.77;6.47;;;;;;;;;;777001;74;26918;-76
2022/04/25 07:50:25;;;;;;;12.47;5.90;;;;;;;;;;777058;75;27053;-76
2022/04/25 07:51:28;;;;;;;15.47;6.50;;;;;;;;;;779544;76;27386;-78
2022/04/25 07:52:31;;;;;;;17.63;6.70;;;;;;;;;;779500;76;27382;-79
2022/04/25 07:53:34;;;;;;;11.20;6.23;;;;;;;;;;779573;76;26983;-77
2022/04/25 07:54:37;;;;;;;16.50;6.90;;;;;;;;;;779451;76;27397;-77
2022/04/25 07:55:39;;;;;;;12.77;5.53;;;;;;;;;;779512;76;26925;-77
2022/04/25 08:01:35;;;;;;;14.60;6.27;;;;;;;;;;774789;76;27371;-77
2022/04/25 08:02:38;;;;;;;14.67;5.57;;;;;;;;;;774349;76;27401;-75
2022/04/25 08:03:42;;;;;;;15.33;5.83;;;;;;;;;;774668;76;26932;-75
2022/04/25 08:04:48;;;;;;;11.80;5.40;;;;;;;;;;774435;76;26957;-75
2022/04/25 08:05:51;;;;;;;14.80;5.40;;;;;;;;;;790905;75;26938;-76
2022/04/25 08:10:23;;;;;;;14.40;5.40;;;;;;;;;;785016;75;26940;-77
2022/04/25 08:11:26;;;;;;;19.50;5.87;;;;;;;;;;777706;75;26913;-76
2022/04/25 08:19:16;;;;;;;12.27;4.80;;;;;;;;;;756038;77;27075;-76
2022/04/25 08:20:19;;;;;;;11.83;4.87;;;;;;;;;;771063;77;27020;-76
2022/04/25 08:21:23;;;;;;;17.47;4.73;;;;;;;;;;770712;77;27366;-74
2022/04/25 08:22:28;;;;;;;13.90;5.10;;;;;;;;;;770937;77;26973;-77
2022/04/25 08:23:31;;;;;;;9.03;4.43;;;;;;;;;;771293;77;27024;-75
2022/04/25 08:24:36;;;;;;;14.77;4.97;;;;;;;;;;770361;77;27000;-75
2022/04/25 08:25:39;;;;;;;9.33;4.90;;;;;;;;;;769560;77;27021;-75
2022/04/25 08:28:51;;;;;;;21.07;9.53;;;;;;;;;;770555;75;27562;-77
2022/04/25 08:29:57;;;;;;;20.67;7.77;;;;;;;;;;767233;76;27028;-76
2022/04/25 08:31:00;;;;;;;18.03;5.97;;;;;;;;;;774242;76;27064;-76
2022/04/25 08:32:02;;;;;;;16.13;5.27;;;;;;;;;;774199;76;27079;-75
2022/04/25 08:33:08;;;;;;;10.60;4.43;;;;;;;;;;774098;76;27048;-77
2022/04/25 08:34:10;;;;;;;17.20;4.90;;;;;;;;;;774133;76;27532;-77
2022/04/25 08:35:13;;;;;;;16.57;4.60;;;;;;;;;;774197;76;26980;-74
2022/04/25 08:40:08;;;;;;;12.23;4.70;;;;;;;;;;780321;74;27478;-77
2022/04/25 08:41:13;;;;;;;16.30;5.00;;;;;;;;;;780442;76;27412;-76
2022/04/25 08:42:16;;;;;;;14.57;4.90;;;;;;;;;;780515;76;27485;-77
2022/04/25 08:43:20;;;;;;;13.40;5.33;;;;;;;;;;776496;75;26929;-75
2022/04/25 08:44:24;;;;;;;12.97;5.67;;;;;;;;;;780463;76;27011;-76
2022/04/25 08:45:28;;;;;;;15.17;4.83;;;;;;;;;;780318;76;27073;-77
2022/04/25 08:49:58;;;;;;;16.10;5.10;;;;;;;;;;769456;76;27115;-75
2022/04/25 08:51:04;;;;;;;16.33;3.93;;;;;;;;;;750015;77;26957;-75
2022/04/25 08:52:08;;;;;;;10.97;4.23;;;;;;;;;;763901;77;26932;-75
2022/04/25 08:53:12;;;;;;;12.80;4.03;;;;;;;;;;774105;76;26929;-77
2022/04/25 08:54:15;;;;;;;10.17;4.33;;;;;;;;;;779867;76;27003;-75
2022/04/25 08:55:18;;;;;;;15.77;4.73;;;;;;;;;;779837;76;27406;-76
2022/04/25 09:09:07;;;;;;;12.33;4.53;;;;;;;;;;764392;76;26880;-77
2022/04/25 09:10:14;;;;;;;10.03;3.93;;;;;;;;;;764427;77;26951;-75
2022/04/25 09:12:38;;;;;;;13.90;3.90;;;;;;;;;;761161;77;27034;-76
2022/04/25 09:13:42;;;;;;;11.13;3.60;;;;;;;;;;761960;77;26945;-77
2022/04/25 09:14:46;;;;;;;14.53;4.43;;;;;;;;;;762379;77;27009;-76
2022/04/25 09:17:54;;;;;;;10.50;4.30;;;;;;;;;;762346;77;27325;-76
2022/04/25 09:18:59;;;;;;;12.33;4.37;;;;;;;;;;747132;77;26943;-75
2022/04/25 09:20:02;;;;;;;8.83;4.37;;;;;;;;;;756612;78;27045;-77
2022/04/25 09:21:05;;;;;;;10.27;4.17;;;;;;;;;;756627;78;27432;-77
2022/04/25 09:22:09;;;;;;;13.60;4.17;;;;;;;;;;756673;78;27481;-76
2022/04/25 09:23:21;;;;;;;15.10;4.23;;;;;;;;;;756638;78;27447;-76
2022/04/25 09:24:26;;;;;;;10.90;3.87;;;;;;;;;;759292;78;27425;-75
2022/04/25 09:25:29;;;;;;;10.30;4.00;;;;;;;;;;756595;78;26961;-76
2022/04/25 09:28:19;;;;;;;10.90;3.60;;;;;;;;;;787803;74;26890;-76
2022/04/25 09:29:25;;;;;;;7.83;3.30;;;;;;;;;;782392;76;26983;-76
2022/04/25 09:30:28;;;;;;;10.30;4.07;;;;;;;;;;788015;75;27341;-75
2022/04/25 09:31:32;;;;;;;6.60;3.60;;;;;;;;;;782343;76;26945;-75
2022/04/25 09:32:35;;;;;;;9.17;3.67;;;;;;;;;;782412;76;26916;-76
2022/04/25 09:33:38;;;;;;;13.60;4.20;;;;;;;;;;787893;75;27349;-76
2022/04/25 09:39:42;;;;;;;15.23;4.70;;;;;;;;;;796848;73;27338;-77
2022/04/25 09:40:46;;;;;;;11.30;4.40;;;;;;;;;;786126;75;26928;-77
2022/04/25 09:41:49;;;;;;;11.87;4.00;;;;;;;;;;786197;75;26995;-77
2022/04/25 09:42:56;;;;;;;8.90;3.80;;;;;;;;;;786290;75;27382;-76
2022/04/25 09:43:59;;;;;;;9.17;4.47;;;;;;;;;;781476;75;26904;-76
2022/04/25 09:45:02;;;;;;;7.30;3.93;;;;;;;;;;786178;75;26924;-76
2022/04/25 09:47:57;;;;;;;10.67;4.30;;;;;;;;;;765631;76;26949;-76
2022/04/25 09:54:20;;;;;;;11.73;3.47;;;;;;;;;;763664;77;26870;-76
2022/04/25 09:55:24;;;;;;;10.13;3.43;;;;;;;;;;762774;78;27386;-76
2022/04/25 09:59:26;;;;;;;9.70;3.57;;;;;;;;;;794757;73;27306;-77
2022/04/25 10:00:36;;;;;;;16.10;4.60;;;;;;;;;;794439;74;26890;-77
2022/04/25 10:01:39;;;;;;;7.67;3.73;;;;;;;;;;794330;74;27389;-76
2022/04/25 10:02:43;;;;;;;9.20;3.90;;;;;;;;;;794373;74;26899;-78
2022/04/25 10:03:46;;;;;;;9.77;3.80;;;;;;;;;;794346;74;26896;-78
2022/04/25 10:04:49;;;;;;;9.33;3.90;;;;;;;;;;794463;74;26899;-77
2022/04/25 10:08:07;;;;;;;11.93;3.10;;;;;;;;;;794673;74;26874;-78
2022/04/25 10:09:10;;;;;;;10.07;3.23;;;;;;;;;;790172;74;26902;-77
2022/04/25 10:10:13;;;;;;;10.20;3.43;;;;;;;;;;788665;75;26913;-77
2022/04/25 10:11:23;;;;;;;6.37;3.20;;;;;;;;;;794260;74;26928;-77
2022/04/25 10:12:22;;;;;;;5.90;3.60;;;;;;;;;;794513;74;26977;-77
2022/04/25 10:13:28;;;;;;;9.30;3.27;;;;;;;;;;795362;74;26972;-77
2022/04/25 10:14:31;;;;;;;8.90;3.17;;;;;;;;;;795374;74;26903;-78
2022/04/25 10:17:52;;;;;;;12.90;3.37;;;;;;;;;;795725;74;26888;-78
2022/04/25 10:18:55;;;;;;;11.87;3.33;;;;;;;;;;777889;76;27425;-77
2022/04/25 10:20:00;;;;;;;10.60;3.53;;;;;;;;;;782691;76;27389;-77
2022/04/25 10:21:06;;;;;;;7.27;2.90;;;;;;;;;;774070;76;26939;-76
2022/04/25 10:22:08;;;;;;;10.40;3.50;;;;;;;;;;783510;74;26978;-77
2022/04/25 10:23:11;;;;;;;12.97;3.80;;;;;;;;;;784657;74;26919;-76
2022/04/25 10:24:18;;;;;;;11.50;3.30;;;;;;;;;;783445;72;26938;-77
2022/04/25 10:29:07;;;;;;;8.10;3.00;;;;;;;;;;770802;77;27007;-76
2022/04/25 10:30:09;;;;;;;8.60;3.10;;;;;;;;;;769202;75;27469;-77
2022/04/25 10:31:16;;;;;;;10.90;3.00;;;;;;;;;;771768;77;27003;-77
2022/04/25 10:32:26;;;;;;;9.77;3.23;;;;;;;;;;771824;77;26941;-76
2022/04/25 10:33:30;;;;;;;10.80;3.20;;;;;;;;;;771735;77;26984;-76
2022/04/25 10:34:51;;;;;;;14.83;3.60;;;;;;;;;;758946;77;27435;-76
2022/04/25 10:39:59;;;;;;;7.80;3.13;;;;;;;;;;780468;73;26935;-77
2022/04/25 10:45:03;;;;;;;5.67;3.87;;;;;;;;;;795439;74;27426;-76
2022/04/25 10:49:42;;;;;;;9.33;3.63;;;;;;;;;;770160;76;27497;-79
2022/04/25 10:51:05;;;;;;;12.13;3.63;;;;;;;;;;780360;76;26938;-77
2022/04/25 11:00:44;;;;;;;12.23;3.70;;;;;;;;;;777515;75;27424;-74
2022/04/25 11:01:47;;;;;;;9.63;3.33;;;;;;;;;;782613;76;27017;-73
2022/04/25 11:03:04;;;;;;;6.27;4.00;;;;;;;;;;782807;76;26944;-76
2022/04/25 11:04:12;;;;;;;8.90;3.63;;;;;;;;;;762591;77;27062;-77
2022/04/25 11:07:24;;;;;;;4.63;3.13;;;;;;;;;;767857;77;26928;-74
2022/04/25 11:08:28;;;;;;;7.27;3.93;;;;;;;;;;762974;78;27450;-75
2022/04/25 11:09:37;;;;;;;8.83;3.20;;;;;;;;;;750253;79;26956;-76
2022/04/25 11:11:03;;;;;;;10.97;3.80;;;;;;;;;;771732;76;26938;-77